地図

経路データ

SID SEASON NUMBER BASIN SUBBASIN NAME ISO_TIME NATURE LAT LON WMO_WIND WMO_PRES WMO_AGENCY TRACK_TYPE DIST2LAND LANDFALL IFLAG USA_AGENCY USA_ATCF_ID USA_LAT USA_LON USA_RECORD USA_STATUS USA_WIND USA_PRES USA_SSHS USA_R34_NE USA_R34_SE USA_R34_SW USA_R34_NW USA_R50_NE USA_R50_SE USA_R50_SW USA_R50_NW USA_R64_NE USA_R64_SE USA_R64_SW USA_R64_NW USA_POCI USA_ROCI USA_RMW USA_EYE TOKYO_LAT TOKYO_LON TOKYO_GRADE TOKYO_WIND TOKYO_PRES TOKYO_R50_DIR TOKYO_R50_LONG TOKYO_R50_SHORT TOKYO_R30_DIR TOKYO_R30_LONG TOKYO_R30_SHORT TOKYO_LAND CMA_LAT CMA_LON CMA_CAT CMA_WIND CMA_PRES HKO_LAT HKO_LON HKO_CAT HKO_WIND HKO_PRES NEWDELHI_LAT NEWDELHI_LON NEWDELHI_GRADE NEWDELHI_WIND NEWDELHI_PRES NEWDELHI_CI NEWDELHI_DP NEWDELHI_POCI REUNION_LAT REUNION_LON REUNION_TYPE REUNION_WIND REUNION_PRES REUNION_TNUM REUNION_CI REUNION_RMW REUNION_R34_NE REUNION_R34_SE REUNION_R34_SW REUNION_R34_NW REUNION_R50_NE REUNION_R50_SE REUNION_R50_SW REUNION_R50_NW REUNION_R64_NE REUNION_R64_SE REUNION_R64_SW REUNION_R64_NW BOM_LAT BOM_LON BOM_TYPE BOM_WIND BOM_PRES BOM_TNUM BOM_CI BOM_RMW BOM_R34_NE BOM_R34_SE BOM_R34_SW BOM_R34_NW BOM_R50_NE BOM_R50_SE BOM_R50_SW BOM_R50_NW BOM_R64_NE BOM_R64_SE BOM_R64_SW BOM_R64_NW BOM_ROCI BOM_POCI BOM_EYE BOM_POS_METHOD BOM_PRES_METHOD NADI_LAT NADI_LON NADI_CAT NADI_WIND NADI_PRES WELLINGTON_LAT WELLINGTON_LON WELLINGTON_WIND WELLINGTON_PRES DS824_LAT DS824_LON DS824_STAGE DS824_WIND DS824_PRES TD9636_LAT TD9636_LON TD9636_STAGE TD9636_WIND TD9636_PRES TD9635_LAT TD9635_LON TD9635_WIND TD9635_PRES TD9635_ROCI NEUMANN_LAT NEUMANN_LON NEUMANN_CLASS NEUMANN_WIND NEUMANN_PRES MLC_LAT MLC_LON MLC_CLASS MLC_WIND MLC_PRES USA_GUST BOM_GUST BOM_GUST_PER REUNION_GUST REUNION_GUST_PER USA_SEAHGT USA_SEARAD_NE USA_SEARAD_SE USA_SEARAD_SW USA_SEARAD_NW STORM_SPEED STORM_DIR
1937003S15118 1937 2 SI WA NOT_NAMED 1937-01-02 23:00:00 NR -15.0000 118.000 main 516 511 __________O___ -1 -15.0000 118.000 7 11 218
1937003S15118 1937 2 SI WA NOT_NAMED 1937-01-03 00:00:00 NR -15.1432 117.885 main 520 515 __________P___ -1 -15.1432 117.885 7 8 218
1937003S15118 1937 2 SI WA NOT_NAMED 1937-01-03 01:00:00 NR -15.2152 117.829 bom main 525 520 ______O___P___ -1 -15.0000 118.000 -15.2870 117.771 7 8 216
1937003S15118 1937 2 SI WA NOT_NAMED 1937-01-03 03:00:00 NR -15.4681 117.640 main 530 513 ______P___P___ -1 -15.2467 117.818 -15.5788 117.550 7 9 214
1937003S15118 1937 2 SI WA NOT_NAMED 1937-01-03 06:00:00 NR -15.8573 117.381 main 503 479 ______P___P___ -1 -15.6173 117.557 -16.0373 117.250 7 9 210
1937003S15118 1937 2 SI WA NOT_NAMED 1937-01-03 09:00:00 NR -16.2628 117.169 main 468 448 ______P___P___ -1 -15.9895 117.326 -16.5361 117.011 7 9 204
1937003S15118 1937 2 SI WA NOT_NAMED 1937-01-03 11:00:00 NR -16.5696 117.049 main 440 429 ______P___O___ -1 -16.2392 117.198 -16.9000 116.900 7 10 199
1937003S15118 1937 2 SI WA NOT_NAMED 1937-01-03 12:00:00 NR -16.7287 117.003 main 429 379 ______P___P___ -1 -16.3646 117.144 -17.0928 116.862 7 10 191
1937003S15118 1937 2 SI WA NOT_NAMED 1937-01-03 15:00:00 NR -17.2182 116.920 main 379 346 ______P___P___ -1 -16.7440 117.029 -17.6924 116.810 7 10 186
1937003S15118 1937 2 SI WA NOT_NAMED 1937-01-03 17:00:00 NR -17.5423 116.911 bom main 346 324 ______O___P___ -1 -17.0000 117.000 -18.0846 116.821 7 10 0
1937003S15118 1937 2 SI WA NOT_NAMED 1937-01-03 18:00:00 NR -17.6998 116.920 main 324 280 ______P___P___ -1 -17.1289 117.001 -18.2707 116.838 7 9 173
1937003S15118 1937 2 SI WA NOT_NAMED 1937-01-03 21:00:00 NR -18.1364 116.990 main 280 247 ______P___P___ -1 -17.5139 117.057 -18.7588 116.923 7 8 169
1937003S15118 1937 2 SI WA NOT_NAMED 1937-01-03 23:00:00 NR -18.3814 117.062 main 247 236 ______P___O___ -1 -17.7629 117.124 -19.0000 117.000 7 7 163
1937003S15118 1937 2 SI WA NOT_NAMED 1937-01-04 00:00:00 NR -18.4787 117.098 main 236 225 ______P___P___ -1 -17.8832 117.161 -19.0742 117.035 7 6 160
1937003S15118 1937 2 SI WA NOT_NAMED 1937-01-04 01:00:00 NR -18.5641 117.137 bom main 225 212 ______O___P___ -1 -18.0000 117.200 -19.1283 117.074 7 5 153
1937003S15118 1937 2 SI WA NOT_NAMED 1937-01-04 03:00:00 NR -18.6964 117.219 main 212 193 ______P___P___ -1 -18.2069 117.272 -19.1860 117.166 7 4 141
1937003S15118 1937 2 SI WA NOT_NAMED 1937-01-04 06:00:00 NR -18.8318 117.361 main 193 179 ______P___P___ -1 -18.4809 117.397 -19.1828 117.325 7 4 130
1937003S15118 1937 2 SI WA NOT_NAMED 1937-01-04 09:00:00 NR -18.9264 117.513 main 179 165 ______P___P___ -1 -18.7226 117.533 -19.1301 117.493 7 3 123
1937003S15118 1937 2 SI WA NOT_NAMED 1937-01-04 11:00:00 NR -18.9861 117.612 main 165 165 ______P___O___ -1 -18.8723 117.623 -19.1000 117.600 7 3 123
1937003S15118 1937 2 SI WA NOT_NAMED 1937-01-04 12:00:00 NR -19.0162 117.656 main 162 148 ______P___P___ -1 -18.9450 117.668 -19.0874 117.644 7 3 126
1937003S15118 1937 2 SI WA NOT_NAMED 1937-01-04 15:00:00 NR -19.1028 117.781 main 148 135 ______P___P___ -1 -19.1610 117.793 -19.0446 117.770 7 3 131
1937003S15118 1937 2 SI WA NOT_NAMED 1937-01-04 18:00:00 NR -19.2131 117.894 main 135 112 ______P___P___ -1 -19.3836 117.897 -19.0427 117.891 7 3 145
1937003S15118 1937 2 SI WA NOT_NAMED 1937-01-04 21:00:00 NR -19.3848 117.992 main 112 101 ______P___P___ -1 -19.6256 117.970 -19.1441 118.014 7 4 157
1937003S15118 1937 2 SI WA NOT_NAMED 1937-01-04 23:00:00 NR -19.5521 118.048 main 90 89 ______P___O___ -1 -19.8041 117.995 -19.3000 118.100 7 6 163
1937003S15118 1937 2 SI WA NOT_NAMED 1937-01-05 00:00:00 NR -19.6600 118.082 bom main 78 67 ______O___P___ -1 -19.9000 118.000 -19.4201 118.163 7 7 164
1937003S15118 1937 2 SI WA NOT_NAMED 1937-01-05 01:00:00 NR -19.7805 118.115 bom main 67 44 ______O___P___ -1 -20.0000 118.000 -19.5609 118.230 7 8 166
1937003S15118 1937 2 SI WA NOT_NAMED 1937-01-05 03:00:00 NR -20.0437 118.184 main 44 11 ______P___P___ -1 -20.1919 118.003 -19.8955 118.366 7 9 167
1937003S15118 1937 2 SI WA NOT_NAMED 1937-01-05 05:00:00 NR -20.3426 118.247 980 bom main 11 0 ______O___P___ -1 -20.4000 118.000 980 4 -20.2852 118.494 7 9 170
1937003S15118 1937 2 SI WA NOT_NAMED 1937-01-05 06:00:00 NR -20.5081 118.273 main 0 0 ______P___P___ -1 -20.5211 117.993 -20.4950 118.552 7 11 175
1937003S15118 1937 2 SI WA NOT_NAMED 1937-01-05 09:00:00 NR -21.0576 118.312 main 0 0 ______P___P___ -1 -20.9593 117.948 -21.1559 118.676 7 11 179
1937003S15118 1937 2 SI WA NOT_NAMED 1937-01-05 11:00:00 NR -21.4534 118.300 main 0 0 ______P___O___ -1 -21.3068 117.900 -21.6000 118.700 7 12 184
1937003S15118 1937 2 SI WA NOT_NAMED 1937-01-05 12:00:00 NR -21.6559 118.281 main 0 0 ______P___P___ -1 -21.4952 117.871 -21.8166 118.690 7 13 188
1937003S15118 1937 2 SI WA NOT_NAMED 1937-01-05 15:00:00 NR -22.2764 118.172 main 0 0 ______P___P___ -1 -22.1108 117.767 -22.4421 118.578 7 13 194
1937003S15118 1937 2 SI WA NOT_NAMED 1937-01-05 18:00:00 NR -22.8954 117.953 main 0 0 ______P___P___ -1 -22.7875 117.642 -23.0394 118.368 7 13 199
1937003S15118 1937 2 SI WA NOT_NAMED 1937-01-05 21:00:00 NR -23.5441 117.700 main 0 0 ______P___P___ -1 -23.5068 117.502 -23.6187 118.098 7 14 199
1937003S15118 1937 2 SI WA NOT_NAMED 1937-01-05 23:00:00 NR -24.0006 117.527 main 0 0 ______P___O___ -1 -24.0008 117.402 -24.0000 117.900 7 16 204
1937003S15118 1937 2 SI WA NOT_NAMED 1937-01-06 00:00:00 NR -24.2501 117.351 main 0 0 ______P_______ -1 -24.2501 117.351 7 16 202
1937003S15118 1937 2 SI WA NOT_NAMED 1937-01-06 01:00:00 NR -24.5000 117.300 bom main 0 ______O_______ -1 -24.5000 117.300 7 15 189

IBTrACS Databaseについて

本データベースは、米国NOAAが公開する1842年以降の世界の熱帯低気圧のベストトラックデータアーカイブInternational Best Track Archive for Climate Stewardship (IBTrACS)を、ウェブで閲覧しやすい形式に変換したものです。

最終更新日:2021-12-03